Time;durP1;ratioP1;P1;durP2;ratioP2;P2;SDS_P1;SDS_P2;PMS_P1;PMS_P2;Temp;Humidity;BMP_temperature;BMP_pressure;BME280_temperature;BME280_humidity;BME280_pressure;Samples;Min_cycle;Max_cycle;Signal;HPM_P1;HPM_P2
2022/06/20 00:00:53;;;;;;;0.70;0.10;;;22.70;99.90;;;;;;5057477;28;20482;-76
2022/06/20 00:03:24;;;;;;;0.70;0.20;;;22.70;99.90;;;;;;5055859;28;20463;-76
2022/06/20 00:05:53;;;;;;;1.50;0.70;;;22.70;99.90;;;;;;5042589;28;20454;-77
2022/06/20 00:08:21;;;;;;;0.70;0.20;;;22.60;99.90;;;;;;5034965;28;20502;-77
2022/06/20 00:10:50;;;;;;;0.70;0.10;;;22.60;99.90;;;;;;5033840;28;20456;-78
2022/06/20 00:13:28;;;;;;;0.70;0.20;;;22.50;99.90;;;;;;5056060;28;20620;-77
2022/06/20 00:15:57;;;;;;;0.70;0.30;;;22.40;99.90;;;;;;5046230;28;20475;-77
2022/06/20 00:18:25;;;;;;;0.80;0.40;;;22.40;99.90;;;;;;5042620;28;20479;-78
2022/06/20 00:20:53;;;;;;;0.70;0.20;;;22.30;99.90;;;;;;5036963;28;20483;-78
2022/06/20 00:23:21;;;;;;;0.90;0.47;;;22.30;99.90;;;;;;5035841;28;20869;-75
2022/06/20 00:25:49;;;;;;;0.80;0.40;;;22.20;99.90;;;;;;5035626;28;20451;-77
2022/06/20 00:28:18;;;;;;;0.70;0.20;;;22.10;99.90;;;;;;5041600;28;20475;-77
2022/06/20 00:30:47;;;;;;;0.70;0.20;;;22.10;99.90;;;;;;5054919;28;20584;-76
2022/06/20 00:33:15;;;;;;;2.20;1.40;;;22.00;99.90;;;;;;5055311;28;20434;-76
2022/06/20 00:35:43;;;;;;;0.70;0.10;;;21.90;99.90;;;;;;5040380;28;20530;-78
2022/06/20 00:38:18;;;;;;;0.70;0.20;;;21.90;99.90;;;;;;5042575;28;20478;-77
2022/06/20 00:40:49;;;;;;;0.80;0.50;;;21.80;99.90;;;;;;5044219;28;21023;-76
2022/06/20 00:43:24;;;;;;;0.70;0.10;;;21.70;99.90;;;;;;5043864;28;20530;-77
2022/06/20 00:45:57;;;;;;;5.27;0.60;;;21.70;99.90;;;;;;5056713;28;20519;-76
2022/06/20 00:48:31;;;;;;;0.70;0.20;;;21.60;99.90;;;;;;5058663;28;20844;-77
2022/06/20 00:51:07;;;;;;;0.70;0.20;;;21.60;99.90;;;;;;5055476;28;20453;-77
2022/06/20 00:53:41;;;;;;;15.30;8.43;;;21.50;99.90;;;;;;5055036;28;20454;-79
2022/06/20 00:56:13;;;;;;;0.70;0.10;;;21.40;99.90;;;;;;5039754;28;20473;-76
2022/06/20 00:58:46;;;;;;;0.70;0.20;;;21.10;99.90;;;;;;5034967;28;20476;-78
2022/06/20 01:01:18;;;;;;;0.70;0.30;;;21.10;99.90;;;;;;5040686;28;20504;-77
2022/06/20 01:03:51;;;;;;;0.70;0.20;;;21.10;99.90;;;;;;5036346;28;20812;-77
2022/06/20 01:06:23;;;;;;;0.70;0.10;;;21.00;99.90;;;;;;5035577;28;20980;-76
2022/06/20 01:08:55;;;;;;;0.70;0.20;;;21.00;99.90;;;;;;5037481;28;20467;-78
2022/06/20 01:11:26;;;;;;;0.70;0.10;;;20.90;99.90;;;;;;5052333;28;20537;-77
2022/06/20 01:13:54;;;;;;;0.70;0.10;;;22.30;99.90;;;;;;5062952;28;20442;-76
2022/06/20 01:16:27;;;;;;;0.70;0.23;;;21.00;99.90;;;;;;5056022;28;20469;-77
2022/06/20 01:18:58;;;;;;;0.70;0.10;;;20.90;99.90;;;;;;5056363;28;20458;-77
2022/06/20 01:21:32;;;;;;;0.70;0.20;;;20.90;99.90;;;;;;5054049;28;20505;-75
2022/06/20 01:24:11;;;;;;;0.70;0.20;;;20.90;99.90;;;;;;5055071;28;20441;-76
2022/06/20 01:26:50;;;;;;;0.70;0.20;;;20.80;99.90;;;;;;5035953;28;20498;-78
2022/06/20 01:29:19;;;;;;;1.17;0.87;;;20.80;99.90;;;;;;5052923;28;20823;-77
2022/06/20 01:31:52;;;;;;;0.70;0.20;;;20.80;99.90;;;;;;5053839;28;20537;-76
2022/06/20 01:34:22;;;;;;;1.10;0.57;;;20.70;99.90;;;;;;5053778;28;20452;-76
2022/06/20 01:39:41;;;;;;;0.70;0.20;;;20.70;99.90;;;;;;5053746;28;20473;-76
2022/06/20 01:42:20;;;;;;;0.60;0.10;;;20.70;99.90;;;;;;5053312;28;20475;-76
2022/06/20 01:44:53;;;;;;;0.70;0.20;;;20.70;99.90;;;;;;5032747;28;20835;-76
2022/06/20 01:47:22;;;;;;;0.70;0.20;;;20.60;99.90;;;;;;5031968;28;20522;-77
2022/06/20 01:49:54;;;;;;;0.90;0.40;;;20.60;99.90;;;;;;5033615;28;20450;-77
2022/06/20 01:52:28;;;;;;;0.90;0.20;;;20.50;99.90;;;;;;5034172;28;20519;-77
2022/06/20 01:55:01;;;;;;;1.10;0.40;;;20.60;99.90;;;;;;5032983;28;20463;-76
2022/06/20 01:57:31;;;;;;;2.03;1.90;;;20.70;99.90;;;;;;5032981;28;20478;-77
2022/06/20 02:00:03;;;;;;;0.60;0.10;;;20.60;99.90;;;;;;5031992;28;20456;-76
2022/06/20 02:02:37;;;;;;;2.10;1.07;;;20.70;99.90;;;;;;5033219;28;20843;-76
2022/06/20 02:05:10;;;;;;;0.70;0.20;;;20.70;99.90;;;;;;5033257;28;20440;-77
2022/06/20 02:07:40;;;;;;;0.90;0.37;;;20.70;99.90;;;;;;5032501;28;20474;-77
2022/06/20 02:10:11;;;;;;;0.70;0.20;;;20.70;99.90;;;;;;5032581;28;20443;-77
2022/06/20 02:12:39;;;;;;;0.70;0.20;;;20.70;99.90;;;;;;5033638;28;20438;-77
2022/06/20 02:15:15;;;;;;;0.70;0.20;;;20.80;99.90;;;;;;5032755;28;20456;-77
2022/06/20 02:17:46;;;;;;;0.70;0.20;;;20.90;99.90;;;;;;5032347;28;20477;-77
2022/06/20 02:20:24;;;;;;;0.60;0.10;;;20.90;99.90;;;;;;5035190;28;20428;-78
2022/06/20 02:22:54;;;;;;;0.67;0.17;;;20.90;99.90;;;;;;5041715;28;20470;-78
2022/06/20 02:25:25;;;;;;;0.70;0.20;;;20.90;99.90;;;;;;5044151;28;20439;-78
2022/06/20 02:27:57;;;;;;;0.70;0.27;;;20.90;99.90;;;;;;5033329;28;20479;-78
2022/06/20 02:30:28;;;;;;;1.03;0.50;;;20.90;99.90;;;;;;5032900;28;20473;-77
2022/06/20 02:33:05;;;;;;;0.70;0.30;;;20.90;99.90;;;;;;5038698;28;20534;-78
2022/06/20 02:35:33;;;;;;;0.70;0.20;;;20.90;99.90;;;;;;5047710;28;20435;-78
2022/06/20 02:38:01;;;;;;;0.80;0.60;;;20.80;99.90;;;;;;5042579;28;20459;-77
2022/06/20 02:40:30;;;;;;;0.70;0.20;;;20.80;99.90;;;;;;5038267;28;20450;-77
2022/06/20 02:43:05;;;;;;;0.60;0.10;;;20.80;99.90;;;;;;5042171;28;20821;-78
2022/06/20 02:45:35;;;;;;;0.67;0.10;;;20.70;99.90;;;;;;5039267;28;20447;-77
2022/06/20 02:48:06;;;;;;;0.60;0.10;;;20.90;99.90;;;;;;5039351;28;20475;-77
2022/06/20 02:50:39;;;;;;;0.60;0.10;;;20.80;99.90;;;;;;5040994;28;20444;-79
2022/06/20 02:53:13;;;;;;;0.60;0.10;;;21.00;99.90;;;;;;5049500;28;20407;-80
2022/06/20 02:55:41;;;;;;;0.70;0.10;;;21.10;99.90;;;;;;5046549;28;20535;-80
2022/06/20 02:58:14;;;;;;;0.70;0.20;;;21.10;99.90;;;;;;5045822;28;20549;-79
2022/06/20 03:00:49;;;;;;;0.70;0.20;;;21.00;99.90;;;;;;5056156;28;20462;-79
2022/06/20 03:03:25;;;;;;;2.60;2.40;;;20.90;99.90;;;;;;5061375;28;20479;-79
2022/06/20 03:05:54;;;;;;;0.70;0.20;;;20.90;99.90;;;;;;5061144;28;20427;-79
2022/06/20 03:08:22;;;;;;;0.63;0.17;;;20.80;99.90;;;;;;5057453;28;20557;-78
2022/06/20 03:10:52;;;;;;;0.90;0.60;;;20.80;99.90;;;;;;5061700;28;20457;-78
2022/06/20 03:13:21;;;;;;;0.70;0.30;;;20.70;99.90;;;;;;5049905;28;20462;-77
2022/06/20 03:15:53;;;;;;;0.60;0.17;;;20.60;99.90;;;;;;5044783;28;20436;-78
2022/06/20 03:18:24;;;;;;;0.70;0.10;;;20.50;99.90;;;;;;5043421;28;20537;-79
2022/06/20 03:20:52;;;;;;;0.60;0.10;;;20.50;99.90;;;;;;5050855;28;20471;-79
2022/06/20 03:23:24;;;;;;;0.60;0.10;;;20.50;99.90;;;;;;5039600;28;20458;-78
2022/06/20 03:25:54;;;;;;;0.70;0.10;;;20.50;99.90;;;;;;5043910;28;20455;-79
2022/06/20 03:28:23;;;;;;;0.70;0.20;;;20.50;99.90;;;;;;5057012;28;20538;-79
2022/06/20 03:31:10;;;;;;;0.60;0.10;;;20.50;99.90;;;;;;5060415;28;20487;-79
2022/06/20 03:33:40;;;;;;;0.70;0.20;;;20.50;99.90;;;;;;5053300;28;20486;-79
2022/06/20 03:36:13;;;;;;;0.60;0.10;;;20.50;99.90;;;;;;5057799;28;20514;-79
2022/06/20 03:38:43;;;;;;;0.60;0.17;;;20.50;99.90;;;;;;5064219;28;20534;-80
2022/06/20 03:41:14;;;;;;;0.60;0.10;;;20.40;99.90;;;;;;5058563;28;20451;-78
2022/06/20 03:43:48;;;;;;;0.70;0.20;;;20.40;99.90;;;;;;5058184;28;20987;-79
2022/06/20 03:46:21;;;;;;;0.70;0.10;;;20.20;99.90;;;;;;5052740;28;20466;-77
2022/06/20 03:48:56;;;;;;;0.80;0.40;;;20.40;99.90;;;;;;5042064;28;20462;-78
2022/06/20 03:51:29;;;;;;;0.70;0.10;;;20.00;99.90;;;;;;5049230;28;20440;-78
2022/06/20 03:54:04;;;;;;;0.60;0.10;;;20.10;99.90;;;;;;5071702;23;20497;-71
2022/06/20 03:56:39;;;;;;;0.60;0.10;;;20.10;99.90;;;;;;5052595;28;20440;-71
2022/06/20 03:59:12;;;;;;;0.70;0.20;;;20.20;99.90;;;;;;5044605;28;20446;-72
2022/06/20 04:01:46;;;;;;;0.60;0.17;;;20.20;99.90;;;;;;5043335;28;20577;-71
2022/06/20 04:04:20;;;;;;;0.70;0.10;;;20.20;99.90;;;;;;5038625;28;20472;-71
2022/06/20 04:06:54;;;;;;;0.60;0.10;;;20.30;99.90;;;;;;5046095;28;20442;-72
2022/06/20 04:12:24;;;;;;;0.60;0.20;;;20.30;99.90;;;;;;5053386;28;20439;-72
2022/06/20 04:14:57;;;;;;;0.63;0.20;;;20.40;99.90;;;;;;5042167;28;20471;-72
2022/06/20 04:20:34;;;;;;;1.30;0.50;;;20.40;99.90;;;;;;5034074;28;20447;-71
2022/06/20 04:23:08;;;;;;;0.60;0.20;;;20.40;99.90;;;;;;5034965;28;20475;-71
2022/06/20 04:25:40;;;;;;;0.60;0.10;;;20.40;99.90;;;;;;5053830;28;20941;-71
2022/06/20 04:28:18;;;;;;;0.70;0.20;;;20.50;99.90;;;;;;5041064;28;20467;-72
2022/06/20 04:30:53;;;;;;;0.67;0.10;;;20.60;99.90;;;;;;5034065;28;20443;-72
2022/06/20 04:33:28;;;;;;;0.60;0.10;;;20.70;99.90;;;;;;5046200;28;20461;-72
2022/06/20 04:36:14;;;;;;;0.60;0.20;;;20.70;99.90;;;;;;5046851;28;20533;-72
2022/06/20 04:38:47;;;;;;;0.60;0.20;;;20.70;99.90;;;;;;5044873;28;20445;-73
2022/06/20 04:41:19;;;;;;;0.60;0.10;;;20.70;99.90;;;;;;5044344;28;20450;-71
2022/06/20 04:43:52;;;;;;;0.60;0.10;;;20.80;99.90;;;;;;5042259;28;20497;-72
2022/06/20 04:46:25;;;;;;;0.63;0.13;;;20.70;99.90;;;;;;5053360;28;20456;-72
2022/06/20 04:48:56;;;;;;;0.90;0.47;;;20.70;99.90;;;;;;5053720;28;20447;-72
2022/06/20 04:51:29;;;;;;;0.70;0.20;;;20.80;99.90;;;;;;5053783;28;20447;-72
2022/06/20 04:53:57;;;;;;;0.60;0.10;;;20.80;99.90;;;;;;5043728;28;20494;-72
2022/06/20 04:56:26;;;;;;;0.63;0.17;;;20.80;99.90;;;;;;5032894;28;20455;-72
2022/06/20 04:58:58;;;;;;;0.70;0.10;;;20.70;99.90;;;;;;5033268;28;20563;-72
2022/06/20 05:01:28;;;;;;;0.60;0.20;;;20.70;99.90;;;;;;5044277;28;20439;-66
2022/06/20 05:04:02;;;;;;;0.60;0.10;;;20.70;99.90;;;;;;5040860;28;20494;-66
2022/06/20 05:06:32;;;;;;;0.60;0.10;;;24.60;99.90;;;;;;5040579;28;20549;-66
2022/06/20 05:09:07;;;;;;;0.60;0.20;;;20.70;99.90;;;;;;5037683;28;20454;-68
2022/06/20 05:11:40;;;;;;;0.63;0.20;;;20.80;99.90;;;;;;5036166;28;20447;-67
2022/06/20 05:14:11;;;;;;;0.80;0.40;;;20.90;99.90;;;;;;5041635;28;20809;-68
2022/06/20 05:16:44;;;;;;;0.70;0.20;;;20.90;99.90;;;;;;5032434;28;20451;-67
2022/06/20 05:19:18;;;;;;;0.60;0.10;;;20.90;99.90;;;;;;5043615;28;20462;-67
2022/06/20 05:21:49;;;;;;;0.60;0.10;;;20.90;99.90;;;;;;5052462;28;20756;-67
2022/06/20 05:24:20;;;;;;;0.60;0.10;;;20.90;99.90;;;;;;5040408;28;20455;-67
2022/06/20 05:26:51;;;;;;;0.67;0.30;;;21.10;99.90;;;;;;5033743;28;20462;-67
2022/06/20 05:29:29;;;;;;;0.70;0.20;;;21.10;99.90;;;;;;5051773;28;20447;-69
2022/06/20 05:31:59;;;;;;;0.70;0.20;;;21.10;99.90;;;;;;5052228;28;20442;-65
2022/06/20 05:34:34;;;;;;;0.60;0.20;;;21.10;99.90;;;;;;5038907;28;20467;-65
2022/06/20 05:37:15;;;;;;;0.60;0.20;;;21.20;99.90;;;;;;5032304;28;20440;-66
2022/06/20 05:39:48;;;;;;;0.70;0.10;;;21.30;99.90;;;;;;5031959;28;20442;-68
2022/06/20 05:42:18;;;;;;;0.70;0.10;;;21.30;99.90;;;;;;5039542;28;20469;-68
2022/06/20 05:44:47;;;;;;;0.70;0.10;;;21.40;99.90;;;;;;5038574;28;20486;-69
2022/06/20 05:47:23;;;;;;;0.70;0.20;;;21.50;99.90;;;;;;5043597;28;20458;-69
2022/06/20 05:49:57;;;;;;;0.70;0.20;;;21.60;99.90;;;;;;5036677;28;20458;-65
2022/06/20 05:52:30;;;;;;;0.70;0.20;;;21.70;99.90;;;;;;5039665;28;21136;-69
2022/06/20 05:55:04;;;;;;;0.70;0.20;;;21.70;99.90;;;;;;5032940;28;20475;-68
2022/06/20 05:57:34;;;;;;;0.70;0.20;;;21.70;99.90;;;;;;5031074;28;20443;-69
2022/06/20 06:00:12;;;;;;;0.70;0.10;;;21.80;99.90;;;;;;5032102;28;20447;-68
2022/06/20 06:02:44;;;;;;;0.70;0.20;;;21.80;99.90;;;;;;5041700;28;20828;-66
2022/06/20 06:05:20;;;;;;;0.70;0.20;;;21.80;99.90;;;;;;5047357;28;20540;-68
2022/06/20 06:07:53;;;;;;;0.70;0.10;;;;;;;;;;5043229;28;20646;-68
2022/06/20 06:10:30;;;;;;;0.70;0.20;;;21.80;99.90;;;;;;5052125;28;20439;-68
2022/06/20 06:13:07;;;;;;;0.70;0.20;;;21.70;99.90;;;;;;5051485;28;20434;-68
2022/06/20 06:15:41;;;;;;;0.70;0.10;;;21.70;99.90;;;;;;5038869;28;20457;-69
2022/06/20 06:18:15;;;;;;;0.70;0.10;;;21.70;99.90;;;;;;5032023;28;20444;-73
2022/06/20 06:20:47;;;;;;;0.70;0.20;;;21.80;99.90;;;;;;5034282;28;20768;-73
2022/06/20 06:23:16;;;;;;;0.70;0.10;;;21.70;99.90;;;;;;5051195;28;20489;-75
2022/06/20 06:25:45;;;;;;;0.70;0.20;;;21.70;99.90;;;;;;5051279;28;20447;-75
2022/06/20 06:28:16;;;;;;;0.70;0.10;;;21.70;99.90;;;;;;5039697;28;20473;-75
2022/06/20 06:30:49;;;;;;;0.70;0.20;;;21.70;99.90;;;;;;5032286;28;20451;-75
2022/06/20 06:33:22;;;;;;;0.70;0.20;;;21.60;99.90;;;;;;5033051;28;20876;-75
2022/06/20 06:35:57;;;;;;;0.70;0.10;;;21.60;99.90;;;;;;5052256;28;20510;-75
2022/06/20 06:38:31;;;;;;;2.10;0.73;;;21.60;99.90;;;;;;5052935;28;20445;-75
2022/06/20 06:41:01;;;;;;;0.70;0.10;;;21.50;99.90;;;;;;5051980;28;20554;-75
2022/06/20 06:43:38;;;;;;;0.67;0.10;;;21.50;99.90;;;;;;5048454;28;20890;-74
2022/06/20 06:46:18;;;;;;;0.70;0.20;;;21.50;99.90;;;;;;5048279;28;20445;-75
2022/06/20 06:48:51;;;;;;;0.70;0.20;;;21.50;99.90;;;;;;5056024;28;20896;-75
2022/06/20 06:51:25;;;;;;;0.70;0.20;;;21.50;99.90;;;;;;5056618;28;20435;-75
2022/06/20 06:53:58;;;;;;;0.70;0.20;;;21.50;1.00;;;;;;5055816;28;20473;-75
2022/06/20 06:56:31;;;;;;;0.70;0.20;;;21.40;1.00;;;;;;5038821;28;20463;-75
2022/06/20 06:59:06;;;;;;;0.70;0.10;;;21.40;1.00;;;;;;5036912;28;20448;-75
2022/06/20 07:01:40;;;;;;;0.70;0.20;;;21.40;1.00;;;;;;5037355;28;20941;-74
2022/06/20 07:04:16;;;;;;;0.83;0.20;;;21.30;1.00;;;;;;5043255;28;20517;-75
2022/06/20 07:06:50;;;;;;;0.60;0.10;;;21.40;1.00;;;;;;5036707;28;20446;-75
2022/06/20 07:09:23;;;;;;;0.70;0.20;;;21.20;1.00;;;;;;5043427;28;20446;-65
2022/06/20 07:11:57;;;;;;;0.70;0.20;;;21.10;1.00;;;;;;5047405;28;20463;-63
2022/06/20 07:14:25;;;;;;;0.60;0.17;;;21.10;1.00;;;;;;5049372;28;20457;-63
2022/06/20 07:17:01;;;;;;;0.67;0.13;;;21.20;1.00;;;;;;5034780;28;20526;-64
2022/06/20 07:19:30;;;;;;;0.60;0.10;;;21.20;1.00;;;;;;5035122;28;20530;-64
2022/06/20 07:22:00;;;;;;;0.70;0.10;;;21.20;1.00;;;;;;5034951;28;20455;-64
2022/06/20 07:24:32;;;;;;;0.70;0.17;;;21.30;1.00;;;;;;5035563;28;20573;-64
2022/06/20 07:27:06;;;;;;;0.70;0.20;;;21.30;1.00;;;;;;5043599;28;20435;-64
2022/06/20 07:29:45;;;;;;;0.70;0.20;;;21.30;1.00;;;;;;5043605;28;20445;-64
2022/06/20 07:32:18;;;;;;;0.67;0.10;;;21.20;1.00;;;;;;5037449;28;20477;-65
2022/06/20 07:34:52;;;;;;;0.70;0.20;;;21.20;1.00;;;;;;5043663;28;20470;-63
2022/06/20 07:37:25;;;;;;;0.70;0.20;;;21.20;1.00;;;;;;5045540;28;20931;-64
2022/06/20 07:39:59;;;;;;;0.70;0.10;;;21.20;1.00;;;;;;5054787;28;20541;-63
2022/06/20 07:42:31;;;;;;;0.70;0.10;;;21.20;1.00;;;;;;5054846;28;20453;-64
2022/06/20 07:45:03;;;;;;;0.70;0.10;;;21.30;1.00;;;;;;5047730;28;20474;-63
2022/06/20 07:47:34;;;;;;;1.60;1.50;;;21.40;1.00;;;;;;5048657;28;20435;-65
2022/06/20 07:50:07;;;;;;;0.70;0.13;;;21.50;1.00;;;;;;5054753;28;20533;-64
2022/06/20 07:52:40;;;;;;;0.70;0.20;;;21.50;1.00;;;;;;5054322;28;20438;-65
2022/06/20 07:55:12;;;;;;;0.67;0.10;;;21.60;1.00;;;;;;5047238;28;20479;-65
2022/06/20 07:57:45;;;;;;;0.67;0.10;;;21.70;1.00;;;;;;5033461;28;20470;-65
2022/06/20 08:00:17;;;;;;;0.70;0.20;;;21.70;1.00;;;;;;5034705;28;20451;-71
2022/06/20 08:02:49;;;;;;;2.10;2.00;;;21.70;1.00;;;;;;5034665;28;20447;-69
2022/06/20 08:05:21;;;;;;;0.70;0.20;;;21.70;1.00;;;;;;5040279;28;21016;-69
2022/06/20 08:07:57;;;;;;;0.70;0.10;;;21.60;1.00;;;;;;5053690;28;20447;-69
2022/06/20 08:10:31;;;;;;;0.70;0.10;;;21.70;1.00;;;;;;5054399;28;20752;-71
2022/06/20 08:13:05;;;;;;;0.70;0.20;;;21.70;1.00;;;;;;5051913;28;20923;-71
2022/06/20 08:15:39;;;;;;;0.70;0.20;;;21.60;1.00;;;;;;5041665;28;20438;-70
2022/06/20 08:18:07;;;;;;;0.70;0.10;;;21.60;1.00;;;;;;5050377;28;20446;-70
2022/06/20 08:20:39;;;;;;;0.70;0.20;;;21.50;1.00;;;;;;5053932;28;20452;-70
2022/06/20 08:23:16;;;;;;;0.70;0.10;;;21.50;1.00;;;;;;5054191;28;20468;-70
2022/06/20 08:25:50;;;;;;;0.70;0.20;;;21.40;1.00;;;;;;5044257;28;20558;-69
2022/06/20 08:28:20;;;;;;;0.60;0.20;;;21.30;1.00;;;;;;5047185;28;20439;-70
2022/06/20 08:30:52;;;;;;;0.70;0.10;;;21.30;1.00;;;;;;5051916;28;20446;-71
2022/06/20 08:33:27;;;;;;;0.70;0.20;;;21.10;1.00;;;;;;5054364;28;20470;-71
2022/06/20 08:36:03;;;;;;;0.60;0.20;;;21.10;1.00;;;;;;5044481;28;20455;-72
2022/06/20 08:38:37;;;;;;;0.70;0.20;;;20.90;1.00;;;;;;5034204;28;20486;-72
2022/06/20 08:41:21;;;;;;;0.70;0.10;;;21.00;1.00;;;;;;5033925;28;20443;-71
2022/06/20 08:44:23;;;;;;;0.60;0.13;;;20.90;1.00;;;;;;5033978;28;20470;-72
2022/06/20 08:47:30;;;;;;;0.70;0.30;;;20.80;1.00;;;;;;5050989;28;20528;-72
2022/06/20 08:50:32;;;;;;;0.90;0.40;;;20.70;1.00;;;;;;5031559;28;20450;-73
2022/06/20 08:54:07;;;;;;;0.60;0.10;;;20.70;1.00;;;;;;5053822;28;20478;-72
2022/06/20 08:56:47;;;;;;;0.60;0.20;;;20.60;1.00;;;;;;5038540;28;20455;-72
2022/06/20 08:59:26;;;;;;;0.60;0.10;;;20.50;1.00;;;;;;5048558;28;20644;-72
2022/06/20 09:02:05;;;;;;;0.60;0.20;;;20.50;1.00;;;;;;5052649;28;20473;-72
2022/06/20 09:04:56;;;;;;;0.60;0.10;;;20.50;1.00;;;;;;5053109;28;20489;-71
2022/06/20 09:07:49;;;;;;;0.60;0.20;;;20.50;1.00;;;;;;5032955;28;20522;-72
2022/06/20 09:10:33;;;;;;;0.70;0.20;;;20.50;1.00;;;;;;5041495;28;20524;-72
2022/06/20 09:13:23;;;;;;;0.60;0.20;;;20.50;1.00;;;;;;5039692;28;20435;-72
2022/06/20 09:15:57;;;;;;;0.60;0.10;;;20.50;1.00;;;;;;5041984;28;20552;-71
2022/06/20 09:18:36;;;;;;;0.60;0.10;;;20.40;1.00;;;;;;5041155;28;20435;-70
2022/06/20 09:21:12;;;;;;;0.67;0.20;;;20.40;1.00;;;;;;5045422;28;20446;-69
2022/06/20 09:23:57;;;;;;;0.60;0.10;;;20.40;1.00;;;;;;5052878;28;20470;-70
2022/06/20 09:26:33;;;;;;;0.60;0.20;;;20.30;1.00;;;;;;5049452;28;20980;-73
2022/06/20 09:29:14;;;;;;;0.60;0.20;;;20.30;1.00;;;;;;5033346;28;20446;-73
2022/06/20 09:32:07;;;;;;;0.60;0.10;;;20.40;1.00;;;;;;5039467;28;20456;-73
2022/06/20 09:35:07;;;;;;;0.60;0.20;;;20.40;1.00;;;;;;5044199;28;20505;-73
2022/06/20 09:38:00;;;;;;;0.60;0.20;;;20.40;1.00;;;;;;5033244;28;20460;-73
2022/06/20 09:40:39;;;;;;;0.70;0.20;;;20.30;1.00;;;;;;5033454;28;20435;-73
2022/06/20 09:43:19;;;;;;;0.60;0.10;;;20.40;1.00;;;;;;5033002;28;20487;-73
2022/06/20 09:45:55;;;;;;;0.67;0.20;;;20.40;1.00;;;;;;5040494;28;20470;-73
2022/06/20 09:48:35;;;;;;;0.60;0.10;;;20.40;1.00;;;;;;5052295;28;20461;-73
2022/06/20 09:51:12;;;;;;;0.63;0.20;;;20.40;1.00;;;;;;5053002;28;20442;-73
2022/06/20 09:53:48;;;;;;;0.60;0.20;;;20.30;1.00;;;;;;5053358;28;20485;-73
2022/06/20 09:56:23;;;;;;;0.60;0.10;;;20.30;1.00;;;;;;5040362;28;20447;-73
2022/06/20 09:59:02;;;;;;;0.60;0.20;;;20.30;1.00;;;;;;5032955;28;20532;-73
2022/06/20 10:01:38;;;;;;;0.60;0.10;;;20.20;1.00;;;;;;5032791;28;20435;-73
2022/06/20 10:04:18;;;;;;;0.60;0.10;;;20.10;1.00;;;;;;5033124;28;20463;-73
2022/06/20 10:06:56;;;;;;;0.60;0.10;;;20.10;1.00;;;;;;5046772;28;20484;-73
2022/06/20 10:09:33;;;;;;;0.60;0.10;;;20.00;1.00;;;;;;5052831;28;20461;-73
2022/06/20 10:12:07;;;;;;;0.60;0.20;;;19.90;1.00;;;;;;5052547;28;20438;-73
2022/06/20 10:14:45;;;;;;;0.60;0.10;;;19.80;1.00;;;;;;5053080;28;20979;-73
2022/06/20 10:17:19;;;;;;;0.60;0.10;;;19.80;1.00;;;;;;5032229;28;20544;-73
2022/06/20 10:19:57;;;;;;;0.80;0.27;;;19.70;1.00;;;;;;5032801;28;20447;-73
2022/06/20 10:22:34;;;;;;;0.60;0.10;;;19.70;1.00;;;;;;5031450;28;20450;-73
2022/06/20 10:25:23;;;;;;;0.60;0.10;;;19.60;1.00;;;;;;5032549;28;20479;-73
2022/06/20 10:28:17;;;;;;;0.97;0.70;;;19.50;1.00;;;;;;5039035;28;20499;-73
2022/06/20 10:30:55;;;;;;;0.60;0.20;;;19.50;1.00;;;;;;5043907;28;20458;-73
2022/06/20 10:33:36;;;;;;;0.60;0.10;;;19.40;1.00;;;;;;5035241;28;20474;-73
2022/06/20 10:36:21;;;;;;;0.60;0.10;;;19.30;1.00;;;;;;5040278;28;20451;-73
2022/06/20 10:39:11;;;;;;;0.60;0.20;;;19.30;1.00;;;;;;5032660;28;20455;-73
2022/06/20 10:41:53;;;;;;;0.60;0.10;;;19.30;1.00;;;;;;5028703;28;20451;-73
2022/06/20 10:44:25;;;;;;;0.60;0.10;;;19.30;1.00;;;;;;5035844;28;20475;-73
2022/06/20 10:47:03;;;;;;;0.60;0.20;;;19.30;1.00;;;;;;5050260;28;20477;-73
2022/06/20 10:49:46;;;;;;;0.60;0.10;;;19.30;1.00;;;;;;5051680;28;20460;-73
2022/06/20 10:52:44;;;;;;;0.60;0.20;;;19.30;1.00;;;;;;5042918;28;20443;-74
2022/06/20 10:55:23;;;;;;;0.60;0.20;;;19.30;1.00;;;;;;5033270;28;20463;-73
2022/06/20 10:57:57;;;;;;;0.60;0.20;;;19.30;1.00;;;;;;5033476;28;20450;-73
2022/06/20 11:00:28;;;;;;;0.60;0.10;;;19.20;1.00;;;;;;5033396;28;20453;-72
2022/06/20 11:03:21;;;;;;;0.60;0.10;;;21.50;1.00;;;;;;5032637;28;20436;-73
2022/06/20 11:05:55;;;;;;;0.60;0.20;;;19.10;1.00;;;;;;5034679;28;20494;-73
2022/06/20 11:08:38;;;;;;;0.60;0.17;;;19.10;1.00;;;;;;5049494;28;20442;-73
2022/06/20 11:11:23;;;;;;;0.60;0.10;;;19.20;1.00;;;;;;5052899;28;20454;-73
2022/06/20 11:13:57;;;;;;;0.67;0.27;;;19.20;1.00;;;;;;5051806;28;20466;-73
2022/06/20 11:16:35;;;;;;;0.60;0.13;;;19.20;1.00;;;;;;5042683;28;20440;-73
2022/06/20 11:19:15;;;;;;;0.70;0.20;;;19.20;1.00;;;;;;5032636;28;20471;-74
2022/06/20 11:21:53;;;;;;;0.60;0.20;;;19.10;1.00;;;;;;5049765;28;20442;-73
2022/06/20 11:24:37;;;;;;;0.60;0.10;;;19.00;1.00;;;;;;5051250;28;20490;-73
2022/06/20 11:27:16;;;;;;;0.60;0.20;;;19.00;1.00;;;;;;5047136;28;21072;-73
2022/06/20 11:30:04;;;;;;;0.60;0.10;;;18.90;1.00;;;;;;5034640;28;20848;-73
2022/06/20 11:32:40;;;;;;;0.60;0.20;;;18.80;1.00;;;;;;5054075;28;20450;-73
2022/06/20 11:35:31;;;;;;;0.60;0.13;;;18.70;1.00;;;;;;5055462;28;20468;-71
2022/06/20 11:38:18;;;;;;;0.60;0.10;;;18.50;1.00;;;;;;5054971;28;20453;-72
2022/06/20 11:40:57;;;;;;;0.60;0.10;;;18.40;1.00;;;;;;5055339;28;20448;-73
2022/06/20 11:43:49;;;;;;;0.60;0.10;;;18.30;1.00;;;;;;5055554;28;20569;-72
2022/06/20 11:46:53;;;;;;;0.60;0.10;;;18.20;1.00;;;;;;5054524;28;20514;-72
2022/06/20 11:49:42;;;;;;;0.60;0.20;;;18.00;1.00;;;;;;4990512;28;20454;-75
2022/06/20 11:52:19;;;;;;;0.60;0.10;;;18.00;1.00;;;;;;5055359;28;20423;-71
2022/06/20 11:54:54;;;;;;;0.60;0.10;;;17.90;1.00;;;;;;5054449;28;20477;-72
2022/06/20 11:57:29;;;;;;;0.60;0.10;;;21.00;1.00;;;;;;5040913;28;20761;-72
2022/06/20 12:00:03;;;;;;;0.60;0.10;;;17.70;1.00;;;;;;5041104;28;20457;-71
2022/06/20 12:02:54;;;;;;;0.60;0.10;;;17.70;1.00;;;;;;5054582;28;20821;-72
2022/06/20 12:05:45;;;;;;;0.60;0.10;;;17.70;1.00;;;;;;5054364;28;20447;-74
2022/06/20 12:08:24;;;;;;;0.60;0.10;;;17.70;1.00;;;;;;5053991;28;20453;-72
2022/06/20 12:10:56;;;;;;;0.60;0.10;;;17.80;1.00;;;;;;5053859;28;20474;-71
2022/06/20 12:13:34;;;;;;;0.60;0.10;;;17.80;1.00;;;;;;5054373;28;20474;-70
2022/06/20 12:16:15;;;;;;;0.60;0.10;;;17.90;1.00;;;;;;5054347;28;20465;-70
2022/06/20 12:24:38;;;;;;;0.60;0.10;;;18.10;1.00;;;;;;5054619;28;20477;-71
2022/06/20 12:27:11;;;;;;;0.60;0.20;;;18.20;1.00;;;;;;5053833;28;20471;-71
2022/06/20 12:29:40;;;;;;;0.60;0.20;;;18.30;1.00;;;;;;5054027;28;20442;-70
2022/06/20 12:32:15;;;;;;;0.60;0.10;;;18.40;1.00;;;;;;5054127;28;20451;-71
2022/06/20 12:34:51;;;;;;;0.60;0.10;;;18.40;1.00;;;;;;5053766;28;20480;-71
2022/06/20 12:37:28;;;;;;;0.60;0.10;;;18.50;1.00;;;;;;5053749;28;20414;-74
2022/06/20 12:40:03;;;;;;;0.60;0.10;;;18.60;1.00;;;;;;5046559;28;20820;-72
2022/06/20 12:42:43;;;;;;;0.60;0.20;;;18.60;1.00;;;;;;5054234;28;20427;-70
2022/06/20 12:45:42;;;;;;;0.60;0.10;;;18.60;1.00;;;;;;5052558;28;20471;-71
2022/06/20 12:48:22;;;;;;;0.60;0.17;;;18.60;1.00;;;;;;5036827;28;20968;-73
2022/06/20 12:50:57;;;;;;;0.60;0.17;;;18.60;1.00;;;;;;5053766;28;20439;-72
2022/06/20 12:53:42;;;;;;;0.60;0.17;;;18.50;1.00;;;;;;5034246;28;20481;-72
2022/06/20 12:56:23;;;;;;;0.60;0.10;;;18.50;1.00;;;;;;5032749;28;20910;-72
2022/06/20 12:59:12;;;;;;;0.60;0.13;;;18.50;1.00;;;;;;5033549;28;20471;-72
2022/06/20 13:01:46;;;;;;;0.60;0.10;;;18.60;1.00;;;;;;5033481;28;20420;-71
2022/06/20 13:04:37;;;;;;;0.60;0.13;;;18.60;1.00;;;;;;5033661;28;20466;-73
2022/06/20 13:07:29;;;;;;;0.60;0.20;;;18.60;1.00;;;;;;5033765;28;20525;-72
2022/06/20 13:10:27;;;;;;;0.60;0.10;;;18.60;1.00;;;;;;5032556;28;20454;-72
2022/06/20 13:13:25;;;;;;;0.60;0.20;;;18.60;1.00;;;;;;5032863;28;20836;-73
2022/06/20 13:16:00;;;;;;;0.60;0.10;;;18.60;1.00;;;;;;5031269;28;20458;-72
2022/06/20 13:18:43;;;;;;;0.60;0.10;;;18.60;1.00;;;;;;5032333;28;20439;-75
2022/06/20 13:21:17;;;;;;;0.60;0.10;;;18.50;1.00;;;;;;5048337;28;20457;-71
2022/06/20 13:24:00;;;;;;;0.60;0.20;;;18.50;1.00;;;;;;5052917;28;20474;-74
2022/06/20 13:26:35;;;;;;;0.60;0.10;;;18.50;1.00;;;;;;5052403;28;20482;-71
2022/06/20 13:29:19;;;;;;;0.60;0.20;;;18.50;1.00;;;;;;5053231;28;20474;-74
2022/06/20 13:31:53;;;;;;;0.60;0.20;;;18.40;1.00;;;;;;5052389;28;20462;-72
2022/06/20 13:34:31;;;;;;;0.60;0.10;;;18.40;1.00;;;;;;5053268;28;20501;-74
2022/06/20 13:37:01;;;;;;;0.60;0.20;;;;;;;;;;5053474;28;20446;-72
2022/06/20 13:39:34;;;;;;;0.60;0.10;;;;;;;;;;5054264;28;20443;-74
2022/06/20 13:42:11;;;;;;;0.60;0.10;;;18.50;1.00;;;;;;5053563;28;20900;-71
2022/06/20 13:44:49;;;;;;;0.60;0.10;;;18.50;1.00;;;;;;5052735;28;20546;-75
2022/06/20 13:47:23;;;;;;;0.60;0.10;;;18.50;1.00;;;;;;5034266;28;21011;-77
2022/06/20 13:50:11;;;;;;;0.60;0.20;;;18.50;1.00;;;;;;5036780;28;20494;-77
2022/06/20 13:52:57;;;;;;;0.60;0.10;;;18.50;1.00;;;;;;5053187;28;20470;-72